Terminal Aerodrome Forecast
Issued by NWS

Home | Current Version | Previous Version | Text Only | Print | Product List | Glossary On
Versions: 1 2 3 4 5 6 7 8 9 10 11 12 13 14 15 16 17 18 19 20 21 22 23 24 25 26 27 28 29 30 31 32 33 34 35 36 37 38 39 40 41 42 43 44 45 46 47 48 49 50
000
FTUS43 KMKX 012338
TAFUES
TAF
KUES 012338Z 0200/0224 16011KT P6SM SCT250 WS020/20045KT
     FM020300 19014G22KT P6SM SCT250 WS020/20050KT
     FM021100 20011G18KT P6SM -SHRA OVC050 WS020/21050KT
      TEMPO 0211/0215 5SM -TSRA BKN015CB
     FM021500 25010KT 3SM SHRA OVC008
      TEMPO 0215/0216 -TSRA OVC008CB
     FM021800 29012KT P6SM BKN035
     FM022000 30013KT P6SM SCT200
     FM022300 29009KT P6SM SCT250=

USA.gov is the U.S. government's official web portal to all federal, state and local government web resources and services.